Portada
METAR-TAF:

METAR-TAF

Aeropuertos :

Waterloo, Iowa, Estados Unidos

latitud: 42-33-16N, longitud: 092-24-04W, altitud: 266 m

Observación

El informe se hizo hace 35 minutos, a las 00:54 UTC
Viento calma
Temperatura 23°C
Humedad 47%
Presión 1014 hPa
Visibilidad: 16.1 km
Cielo despejado

METAR: KALO 290054Z AUTO 00000KT 10SM CLR 23/11 A2993 RMK AO2 SLP129 T02280106

Hora: 20:29 (01:29 UTC)

Pronóstico

El informe se hizo hace 2 horas y 9 minutos, a las 23:20 UTC
Pronóstico válido del 29 a las 00 UTC al 29 a las 24 UTC
Viento 9 kt del norte
Visibilidad: 10 km
Cielo despejado
A partir de las 29 a las 0100 UTC
Viento 6 kt del norte-noroeste
Visibilidad: 10 km
Nubes dispersas a una altura de 25000 ft
A partir de las 29 a las 1500 UTC
Viento 12 kt del noroeste con ráfagas de 20 kt
Visibilidad: 10 km
Escasas nubes a una altura de 11000 ft

TAF: KALO 282320Z 2900/2924 01009KT P6SM SKC FM290100 33006KT P6SM SCT250 FM291500 32012G20KT P6SM FEW110

Observaciones y pronósticos meteorológicos de más de 4000 aeropuertos (mensajes METAR y TAF).

Los puntos amarillos y rojos representan las estaciones disponibles.

Ponga el ratón en el punto deseado para ver el nombre de la estación.

Haga clic para ver las observaciones y los pronósticos meteorológicos.

Para cambiar el mapa : haga clic en los botones verdes con una cruz de color negro para hacer un zoom, en el botón verde con un guión para alejar o en las flechas verdes para mapas adyacentes.


METAR-TAF: